메인 페이지
METAR-TAF:

METAR-TAF

공항 :

멤피스 국제공항

멤피스, 테네시, 미국

위도: 35-03-40N, 경도: 089-59-06W, 고도: 101m

현재 날씨관측

예보는 21분 전, 00:54시(UTC)에 발표되었습니다.
남동9kt
온도 22°C
습도 73%
기압 1009 hPa
시정: 16.1km
고도 2600ft 상공 구름 보통

METAR: KMEM 210054Z 13009KT 10SM SCT026 22/17 A2981 RMK AO2 SLP093 T02220167

시각: 20:15 (01:15 UTC)

예보

예보는 1 시간 47분 전, 23:28시(UTC)에 발표되었습니다.
예보 대상 시간: 21일 00시부터 22일 06시까지 (UTC)
동남동9kt
시정: 10km
고도 5000ft 상공 구름 많음
21일 0600시부터 (UTC)
8kt
시정: 10km
고도 5000ft 상공 흐림
시계 내 소나기
21일 1200시부터 (UTC)
11kt, 순간 최대 풍속 20kt
시정: 6.4km
고도 2500ft 상공 구름 많음, 적란운.
고도 5000ft 상공 흐림
뇌우, 비
일시적
21일 13시부터 21일 16시까지 (UTC)
시정: 1.6km
뇌우, 비
21일 1900시부터 (UTC)
서남서14kt, 순간 최대 풍속 22kt
시정: 10km
고도 700ft 상공 구름 보통
고도 1500ft 상공 흐림
시계 내 소나기
21일 2200시부터 (UTC)
서북서12kt, 순간 최대 풍속 20kt
시정: 10km
고도 4000ft 상공 흐림
22일 0000시부터 (UTC)
6kt
시정: 10km
고도 5000ft 상공 구름 조금

TAF: KMEM 202328Z 2100/2206 11009KT P6SM BKN050 FM210600 17008KT P6SM VCSH OVC050 WS020/22045KT FM211200 19011G20KT 4SM TSRA BKN025CB OVC050 TEMPO 2113/2116 1SM TSRA FM211900 24014G22KT P6SM VCSH SCT007 OVC015 FM212200 29012G20KT P6SM OVC040 FM220000 26006KT P6SM FEW050

4,000개 이상의 공항 관측 자료 및 예보 (METAR 및 TAF 보고).

지도상에서 검색 가능한 기상관측소가 노란 점과 빨간 점으로 표시되어 있습니다.

기상관측소 명을 보려면 표시 위로 마우스를 이동하세요.

날씨 관측과 예보를 보려면 클릭하세요.

지도 변경 : 확대하려면 엑스 표시가 있는 녹색 버튼, 축소하려면 빼기 표시가 있는 녹색 버튼, 다음 페이지의 지도를 보려면 녹색 화살표를 클릭하세요.


METAR-TAF: